Atlanta, Georgia
Traffic Map
Current Weather Conditions
Atlanta, Georgia
Broken Clouds
Broken Clouds
73°
Feels Like: 73°
Wind Chill: 73° Ceiling: 25000
Heat Index: 73° Visibility: 10mi
Dew Point: 70° Wind: 6mph
Humidity: 90% Direction: 310° (NW)
Pressure: 30.12in Gusts: 0mph
Raw Report DataKATL 021152Z 31005KT 10SM SCT150 BKN250 23/21 A3012 RMK AO2 SLP189 70012 T02280211 10233 20222 53009
Traffic Incident Summary
Active as of:
Severity:
Category:
InformationThere was an issue retrieving the traffic information for this location. Please try a different location or try again shortly.
Advertisements
Track Severe Weather on mobile